Terminal Aerodrome Forecast
Issued by NWS

Home | Current Version | Previous Version | Graphics & Text | Print | Product List | Glossary On
Versions: 1 2 3 4 5 6 7 8 9 10 11 12
000
FTUS43 KICT 102338
TAFCNU
TAF
KCNU 102338Z 1100/1124 28005KT P6SM FEW250
     FM110700 23006KT P6SM FEW250
     FM111500 27012KT P6SM SCT250
     FM111700 31019G27KT P6SM SCT250=

USA.gov is the U.S. government's official web portal to all federal, state and local government web resources and services.